Meteopurmerend
purmerend
Purmerend - Baaienwijk



My webcam  My webcam


Onweer radar Meer informatie blitzortung!


Regen radar Meer informatie rain snow radar


Bezoek onze andere website:

CandyAppleRed WebdesignWebdesign Purmerend Candy Apple Red

MeteopurmerendBlog

Template documentation
and downloads



Het weer levert geen direct gevaar op.    Er zijn geen waarschuwingen afgegeven.

METAR rapporten vliegvelden

   
EHAM - Amsterdam
Gewijzigd: 17-10-2018 03:25
Helder  
Helder  
   Wind: varieert 1.9 km/h
Wind: varieert 1.9 km/h
Temperatuur: 13°C
Dauwpunt: 11°C
Vochtigheid: 88%
Barometer: 1017 hPa
Zicht: meer dan 10 km
Bewolking: Helder ft
EHAM 170125Z VRB01KT CAVOK 13/11 Q1017 NOSIG
EHRD - Rotterdam
Gewijzigd: 17-10-2018 03:55
Licht bewolkt  
Licht bewolkt  
   Wind: Zuiden 1.9 km/h
Wind: Zuiden 1.9 km/h
Temperatuur: 13°C
Dauwpunt: 12°C
Vochtigheid: 94%
Barometer: 1017 hPa
Bewolking: Few Clouds
Zicht: 6 km
Bewolking: Licht bewolkt 1500 ft
EHRD 170155Z AUTO 18001KT 6000 FEW015CB 13/12 Q1017 BECMG 6000 MIFG
EHLE - Lelystad
Gewijzigd: 01-01-1970 01:00
Verouderd
  
  
   Wind: Kalm
Wind: Kalm
EHBK - Maastricht
Gewijzigd: 17-10-2018 03:55
Gedeeltelijk bewolkt  
Gedeeltelijk bewolkt  
   Wind: ZZW 13 km/h
Wind: ZZW 13 km/h
Temperatuur: 13°C
Dauwpunt: 9°C
Vochtigheid: 77%
Barometer: 1018 hPa
Bewolking: Partly Cloudy
Zicht: meer dan 10 km
Bewolking: Gedeeltelijk bewolkt ft
EHBK 170155Z AUTO 21007KT 9999 NSC 13/09 Q1018
ELLX - Luxemburg
Gewijzigd: 17-10-2018 03:50
Helder  
Helder  
   Wind: Noorden 9.3 km/h
Wind: Noorden 9.3 km/h
Temperatuur: 11°C
Dauwpunt: 8°C
Vochtigheid: 82%
Barometer: 1019 hPa
Bewolking: Clear
Zicht: meer dan 10 km
Bewolking: Helder ft
ELLX 170150Z AUTO 36005KT 9999 NCD 11/08 Q1019 NOSIG
EBOS - Oostende
Gewijzigd: 17-10-2018 03:50
Nevel, Gedeeltelijk bewolkt  
Nevel, Gedeeltelijk bewolkt  
   Wind: Zuiden 9.3 km/h
Wind: Zuiden 9.3 km/h
Temperatuur: 10°C
Voelt als: 9°C
Dauwpunt: 9°C
Vochtigheid: 94%
Barometer: 1018 hPa
Bewolking: Partly Cloudy
Zicht: 4 km
Bewolking: Gedeeltelijk bewolkt ft
EBOS 170150Z 19005KT 3500 BR NSC 10/09 Q1018 TEMPO 2500 BR

Script ontwikkeld door  Saratoga-weather.org Aangepast voor de template door  Weerstation Leuven

U vindt ons ook hier:

UK Metoffice

European Weather Network

Weather Underground

AWEKAS

Citizen Weather Observer Program (CWOP)

HAMweather, WeatherForYou, PWS Weather

Apparatuur in gebruik:

Weerstation
Davis Vue

Weerprogramma
Meteobridge

Weercomputer
QR code

Webleverancier
Wned

Davis Vue

Meteobridge

QR code

Wned